createdAt,value
2019-03-13T00:02:29.591Z,8.30
2019-03-13T00:04:56.871Z,8.30
2019-03-13T00:07:23.780Z,8.30
2019-03-13T00:09:50.790Z,8.20
2019-03-13T00:12:17.856Z,8.20
2019-03-13T00:14:44.961Z,8.20
2019-03-13T00:17:11.886Z,8.20
2019-03-13T00:19:39.129Z,8.20
2019-03-13T00:22:09.890Z,8.20
2019-03-13T00:24:37.009Z,8.20
2019-03-13T00:27:04.090Z,8.30
2019-03-13T00:29:31.172Z,8.30
2019-03-13T00:31:59.724Z,8.30
2019-03-13T00:34:26.869Z,8.30
2019-03-13T00:36:53.874Z,8.40
2019-03-13T00:39:20.906Z,8.40
2019-03-13T00:41:47.883Z,8.40
2019-03-13T00:44:14.899Z,8.30
2019-03-13T00:46:41.978Z,8.30
2019-03-13T00:49:09.105Z,8.20
2019-03-13T00:51:37.076Z,8.10
2019-03-13T00:54:04.225Z,8.00
2019-03-13T00:56:31.223Z,8.00
2019-03-13T00:58:58.308Z,7.90
2019-03-13T01:01:27.237Z,7.90
2019-03-13T01:03:56.228Z,7.90
2019-03-13T01:06:25.220Z,8.00
2019-03-13T01:08:52.332Z,8.00
2019-03-13T01:11:19.399Z,8.00
2019-03-13T01:13:46.478Z,8.00
2019-03-13T01:16:13.664Z,8.00
2019-03-13T01:18:40.700Z,8.00
2019-03-13T01:21:07.795Z,8.00
2019-03-13T01:23:34.861Z,7.90
2019-03-13T01:26:01.910Z,7.90
2019-03-13T01:28:28.989Z,7.90
2019-03-13T01:31:00.820Z,7.90
2019-03-13T01:33:28.030Z,7.80
2019-03-13T01:35:57.013Z,7.80
2019-03-13T01:38:24.077Z,7.80
2019-03-13T01:40:51.076Z,7.80
2019-03-13T01:43:18.208Z,7.80
2019-03-13T01:45:45.265Z,7.80
2019-03-13T01:48:12.328Z,7.80
2019-03-13T01:50:39.429Z,7.70
2019-03-13T01:53:06.467Z,7.70
2019-03-13T01:55:33.369Z,7.70
2019-03-13T01:58:00.337Z,7.80
2019-03-13T02:00:27.503Z,7.80
2019-03-13T02:02:54.641Z,7.70
2019-03-13T02:05:21.629Z,7.80
2019-03-13T02:07:48.676Z,7.80
2019-03-13T02:10:16.850Z,7.80
2019-03-13T02:12:43.844Z,7.90
2019-03-13T02:15:11.265Z,8.00
2019-03-13T02:17:38.216Z,7.90
2019-03-13T02:20:05.454Z,7.90
2019-03-13T02:22:32.574Z,8.00
2019-03-13T02:24:59.643Z,8.00
2019-03-13T02:27:26.693Z,7.90
2019-03-13T02:29:53.868Z,8.00
2019-03-13T02:32:21.118Z,8.00
2019-03-13T02:34:48.243Z,8.00
2019-03-13T02:37:15.280Z,8.10
2019-03-13T02:39:42.247Z,8.10
2019-03-13T02:42:09.180Z,8.10
2019-03-13T02:44:36.263Z,8.10
2019-03-13T02:47:03.386Z,8.10
2019-03-13T02:49:30.480Z,8.10
2019-03-13T02:51:57.541Z,8.10
2019-03-13T02:54:24.646Z,8.10
2019-03-13T02:56:51.742Z,8.10
2019-03-13T02:59:18.910Z,8.10
2019-03-13T03:01:51.098Z,8.10
2019-03-13T03:04:18.048Z,8.10
2019-03-13T03:06:45.115Z,8.10
2019-03-13T03:09:12.167Z,8.10
2019-03-13T03:11:39.184Z,8.10
2019-03-13T03:14:06.199Z,8.10
2019-03-13T03:16:33.271Z,8.10
2019-03-13T03:19:00.253Z,8.10
2019-03-13T03:21:27.242Z,8.10
2019-03-13T03:23:54.421Z,8.10
2019-03-13T03:26:21.510Z,8.00
2019-03-13T03:28:48.414Z,8.10
2019-03-13T03:31:15.436Z,8.00
2019-03-13T03:33:56.603Z,8.00
2019-03-13T03:36:23.691Z,8.00
2019-03-13T03:38:50.763Z,7.90
2019-03-13T03:41:17.781Z,7.90
2019-03-13T03:43:44.791Z,7.80
2019-03-13T03:46:11.837Z,7.70
2019-03-13T03:48:38.994Z,7.70
2019-03-13T03:51:06.009Z,7.70
2019-03-13T03:53:33.086Z,7.60
2019-03-13T03:56:00.207Z,7.60
2019-03-13T03:58:29.279Z,7.60
2019-03-13T04:03:24.594Z,7.50
2019-03-13T04:05:51.604Z,7.50
2019-03-13T04:08:18.579Z,7.50
2019-03-13T04:10:45.974Z,7.50
2019-03-13T04:13:13.372Z,7.50
2019-03-13T04:15:40.433Z,7.50
2019-03-13T04:18:07.443Z,7.40
2019-03-13T04:20:34.532Z,7.40
2019-03-13T04:23:01.574Z,7.40
2019-03-13T04:25:33.135Z,7.40
2019-03-13T04:28:00.195Z,7.30
2019-03-13T04:30:27.390Z,7.30
2019-03-13T04:32:54.453Z,7.20
2019-03-13T04:35:21.427Z,7.30
2019-03-13T04:37:48.554Z,7.30
2019-03-13T04:40:15.513Z,7.30
2019-03-13T04:42:42.563Z,7.40
2019-03-13T04:45:09.925Z,7.40
2019-03-13T04:47:36.878Z,7.40
2019-03-13T04:50:04.029Z,7.40
2019-03-13T04:52:30.976Z,7.40
2019-03-13T04:54:57.956Z,7.40
2019-03-13T04:57:25.366Z,7.40
2019-03-13T04:59:52.424Z,7.40
2019-03-13T05:02:19.405Z,7.40
2019-03-13T05:04:46.378Z,7.40
2019-03-13T05:07:13.375Z,7.40
2019-03-13T05:09:40.435Z,7.40
2019-03-13T05:12:07.337Z,7.50
2019-03-13T05:14:35.468Z,7.50
2019-03-13T05:17:02.378Z,7.50
2019-03-13T05:19:29.535Z,7.50
2019-03-13T05:21:56.496Z,7.50
2019-03-13T05:24:23.594Z,7.60
2019-03-13T05:26:50.584Z,7.60
2019-03-13T05:29:17.675Z,7.60
2019-03-13T05:31:47.809Z,7.60
2019-03-13T05:34:14.925Z,7.60
2019-03-13T05:36:41.894Z,7.60
2019-03-13T05:39:08.943Z,7.60
2019-03-13T05:41:36.009Z,7.60
2019-03-13T05:44:03.016Z,7.70
2019-03-13T05:46:30.327Z,7.70
2019-03-13T05:48:57.592Z,7.70
2019-03-13T05:51:24.520Z,7.70
2019-03-13T05:53:51.550Z,7.70
2019-03-13T05:56:18.625Z,7.80
2019-03-13T05:58:45.568Z,7.80
2019-03-13T06:01:12.476Z,7.80
2019-03-13T06:03:39.528Z,7.80
2019-03-13T06:06:06.589Z,7.80
2019-03-13T06:08:33.651Z,7.80
2019-03-13T06:11:00.552Z,7.80
2019-03-13T06:13:27.630Z,7.80
2019-03-13T06:15:54.777Z,7.80
2019-03-13T06:18:21.841Z,7.80
2019-03-13T06:20:48.992Z,7.90
2019-03-13T06:23:16.144Z,7.90
2019-03-13T06:25:43.032Z,7.90
2019-03-13T06:28:10.146Z,7.90
2019-03-13T06:30:37.231Z,7.90
2019-03-13T06:33:04.284Z,7.90
2019-03-13T06:35:31.385Z,8.00
2019-03-13T06:37:58.360Z,7.90
2019-03-13T06:40:25.480Z,8.00
2019-03-13T06:42:52.463Z,8.00
2019-03-13T06:45:19.509Z,8.00
2019-03-13T06:47:46.460Z,8.00
2019-03-13T06:50:15.246Z,8.00
2019-03-13T06:52:42.254Z,8.10
2019-03-13T06:55:09.354Z,8.00
2019-03-13T06:57:36.483Z,8.10
2019-03-13T07:00:15.501Z,8.10
2019-03-13T07:02:44.403Z,8.10
2019-03-13T07:05:15.588Z,8.10
2019-03-13T07:07:50.339Z,8.10
2019-03-13T07:10:31.287Z,8.10
2019-03-13T07:13:03.124Z,8.10
2019-03-13T07:15:31.987Z,8.10
2019-03-13T07:18:00.799Z,8.10
2019-03-13T07:20:29.939Z,8.10
2019-03-13T07:23:10.902Z,8.10
2019-03-13T07:25:56.820Z,8.20
2019-03-13T07:28:34.933Z,8.30
2019-03-13T07:31:20.587Z,8.30
2019-03-13T07:33:52.464Z,8.40
2019-03-13T07:36:24.152Z,8.40
2019-03-13T07:38:58.947Z,8.50
2019-03-13T07:41:27.920Z,8.60
2019-03-13T07:44:05.924Z,8.70
2019-03-13T07:46:43.706Z,8.60
2019-03-13T07:49:15.624Z,8.80
2019-03-13T07:51:59.941Z,8.90
2019-03-13T07:54:29.058Z,9.00
2019-03-13T07:56:57.945Z,8.90
2019-03-13T07:59:42.240Z,8.90
2019-03-13T08:02:27.829Z,8.90
2019-03-13T08:04:59.312Z,9.00
2019-03-13T08:07:28.335Z,9.00
2019-03-13T08:10:03.073Z,9.00
2019-03-13T08:12:44.334Z,9.00
2019-03-13T08:15:22.424Z,9.00
2019-03-13T08:17:54.124Z,8.80
2019-03-13T08:20:22.913Z,8.80
2019-03-13T08:22:55.085Z,8.80
2019-03-13T08:25:29.951Z,8.90
2019-03-13T08:28:02.131Z,8.90
2019-03-13T08:30:39.916Z,9.00
2019-03-13T08:33:08.968Z,9.10
2019-03-13T08:35:55.989Z,9.00
2019-03-13T08:38:24.952Z,8.90
2019-03-13T08:40:59.818Z,8.90
2019-03-13T08:43:28.765Z,8.80
2019-03-13T08:46:00.127Z,8.80
2019-03-13T08:48:34.962Z,8.80
2019-03-13T08:51:06.819Z,8.80
2019-03-13T08:53:48.020Z,8.70
2019-03-13T08:56:17.098Z,8.80
2019-03-13T08:58:46.073Z,8.80
2019-03-13T09:01:23.558Z,8.90
2019-03-13T09:03:55.440Z,8.80
2019-03-13T09:06:24.545Z,8.90
2019-03-13T09:08:56.295Z,8.90
2019-03-13T09:11:28.011Z,8.80
2019-03-13T09:13:56.943Z,8.80
2019-03-13T09:16:29.012Z,8.90
2019-03-13T09:18:59.979Z,8.90
2019-03-13T09:21:33.631Z,9.00
2019-03-13T09:24:08.603Z,9.10
2019-03-13T09:26:40.544Z,9.00
2019-03-13T09:29:09.445Z,9.10
2019-03-13T09:31:54.937Z,9.10
2019-03-13T09:34:26.980Z,9.00
2019-03-13T09:37:10.617Z,9.10
2019-03-13T09:39:39.545Z,9.00
2019-03-13T09:42:08.605Z,9.00
2019-03-13T09:44:46.797Z,9.00
2019-03-13T09:47:24.376Z,9.00
2019-03-13T09:50:08.426Z,9.10
2019-03-13T09:52:54.151Z,9.10
2019-03-13T09:55:23.121Z,9.00
2019-03-13T09:57:52.011Z,9.10
2019-03-13T10:00:24.017Z,9.20
2019-03-13T10:03:07.744Z,9.20
2019-03-13T10:05:39.429Z,9.10
2019-03-13T10:08:17.367Z,9.30
2019-03-13T10:10:49.340Z,9.40
2019-03-13T10:13:34.834Z,9.50
2019-03-13T10:16:09.849Z,9.50
2019-03-13T10:18:38.824Z,9.60
2019-03-13T10:21:07.813Z,9.50
2019-03-13T10:23:36.728Z,9.50
2019-03-13T10:26:08.134Z,9.50
2019-03-13T10:28:37.083Z,9.50
2019-03-13T10:31:11.961Z,9.50
2019-03-13T10:33:56.026Z,9.70
2019-03-13T10:36:24.852Z,9.90
2019-03-13T10:39:06.011Z,9.80
2019-03-13T10:41:34.918Z,9.80
2019-03-13T10:44:09.823Z,9.70
2019-03-13T10:46:38.682Z,9.80
2019-03-13T10:49:13.250Z,9.80
2019-03-13T10:51:42.220Z,9.90
2019-03-13T10:54:13.748Z,9.80
2019-03-13T10:56:42.761Z,9.90
2019-03-13T10:59:20.813Z,9.90
2019-03-13T11:02:01.694Z,9.90
2019-03-13T11:04:30.533Z,9.80
2019-03-13T11:07:08.468Z,9.80
2019-03-13T11:09:37.282Z,9.90
2019-03-13T11:12:23.092Z,9.80
2019-03-13T11:14:51.888Z,9.90
2019-03-13T11:17:29.645Z,9.90
2019-03-13T11:20:13.682Z,10.00
2019-03-13T11:22:51.817Z,10.00
2019-03-13T11:25:26.821Z,10.10
2019-03-13T11:28:11.139Z,10.10
2019-03-13T11:30:56.349Z,10.10
2019-03-13T11:33:30.943Z,10.20
2019-03-13T11:36:09.604Z,10.20
2019-03-13T11:38:47.452Z,10.30
2019-03-13T11:41:22.488Z,10.30
2019-03-13T11:44:00.741Z,10.40
2019-03-13T11:46:48.264Z,10.40
2019-03-13T11:49:35.136Z,10.40
2019-03-13T11:52:07.057Z,10.50
2019-03-13T11:54:47.740Z,10.50
2019-03-13T11:57:22.494Z,10.50
2019-03-13T11:59:51.431Z,10.50
2019-03-13T12:02:23.390Z,10.60
2019-03-13T12:05:08.860Z,10.50
2019-03-13T12:07:54.265Z,10.50
2019-03-13T12:10:39.869Z,10.50
2019-03-13T12:13:11.781Z,10.50
2019-03-13T12:15:43.249Z,10.60
2019-03-13T12:18:15.435Z,10.50
2019-03-13T12:21:00.099Z,10.50
2019-03-13T12:23:31.885Z,10.60
2019-03-13T12:26:03.606Z,10.50
2019-03-13T12:28:32.668Z,10.60
2019-03-13T12:31:18.518Z,10.60
2019-03-13T12:33:47.449Z,10.70
2019-03-13T12:36:16.305Z,10.60
2019-03-13T12:38:54.446Z,10.50
2019-03-13T12:41:40.191Z,10.50
2019-03-13T12:44:26.012Z,10.40
2019-03-13T12:47:13.063Z,10.40
2019-03-13T12:49:42.000Z,10.30
2019-03-13T12:52:20.461Z,10.30
2019-03-13T12:54:51.900Z,10.30
2019-03-13T12:57:22.014Z,10.30
2019-03-13T12:59:53.705Z,10.40
2019-03-13T13:02:25.548Z,10.50
2019-03-13T13:04:54.387Z,10.50
2019-03-13T13:07:23.504Z,10.40
2019-03-13T13:09:55.368Z,10.40
2019-03-13T13:12:40.716Z,10.40
2019-03-13T13:15:26.300Z,10.40
2019-03-13T13:18:03.932Z,10.30
2019-03-13T13:20:30.973Z,10.20
2019-03-13T13:22:57.983Z,10.30
2019-03-13T13:25:25.066Z,10.20
2019-03-13T13:27:52.155Z,10.20
2019-03-13T13:30:19.340Z,10.20
2019-03-13T13:32:46.454Z,10.20
2019-03-13T13:35:13.456Z,10.20
2019-03-13T13:37:40.527Z,10.10
2019-03-13T13:40:07.913Z,10.10
2019-03-13T13:42:35.063Z,10.10
2019-03-13T13:45:02.216Z,10.10
2019-03-13T13:47:29.261Z,10.10
2019-03-13T13:49:59.966Z,10.20
2019-03-13T13:52:25.056Z,10.20
2019-03-13T13:54:52.076Z,10.30
2019-03-13T13:57:19.087Z,10.30
2019-03-13T13:59:46.313Z,10.30
2019-03-13T14:02:13.293Z,10.20
2019-03-13T14:04:40.344Z,10.10
2019-03-13T14:07:07.489Z,10.20
2019-03-13T14:09:34.486Z,10.10
2019-03-13T14:12:01.604Z,10.10
2019-03-13T14:14:28.622Z,10.10
2019-03-13T14:16:55.654Z,10.10
2019-03-13T14:19:24.381Z,10.10
2019-03-13T14:21:51.427Z,10.10
2019-03-13T14:24:18.379Z,10.10
2019-03-13T14:26:45.462Z,10.10
2019-03-13T14:29:13.820Z,10.00
2019-03-13T14:31:40.926Z,9.90
2019-03-13T14:34:07.984Z,9.90
2019-03-13T14:36:36.277Z,9.90
2019-03-13T14:39:06.175Z,9.90
2019-03-13T14:41:33.394Z,9.90
2019-03-13T14:44:00.575Z,9.90
2019-03-13T14:46:28.011Z,9.90
2019-03-13T14:48:55.271Z,10.00
2019-03-13T14:51:22.290Z,10.00
2019-03-13T14:53:49.251Z,10.00
2019-03-13T14:56:16.309Z,10.00
2019-03-13T14:58:43.400Z,10.00
2019-03-13T15:01:10.577Z,10.00
2019-03-13T15:03:37.559Z,10.00
2019-03-13T15:06:04.590Z,10.00
2019-03-13T15:08:31.594Z,10.00
2019-03-13T15:10:58.688Z,9.90
2019-03-13T15:13:25.620Z,9.90
2019-03-13T15:15:52.681Z,9.80
2019-03-13T15:18:19.674Z,9.80
2019-03-13T15:20:46.780Z,9.70
2019-03-13T15:23:13.880Z,9.80
2019-03-13T15:25:40.867Z,9.70
2019-03-13T15:28:07.951Z,9.80
2019-03-13T15:30:35.099Z,9.70
2019-03-13T15:33:02.065Z,9.70
2019-03-13T15:35:29.088Z,9.70
2019-03-13T15:37:56.059Z,9.60
2019-03-13T15:40:23.133Z,9.70
2019-03-13T15:42:50.277Z,9.70
2019-03-13T15:45:18.247Z,9.60
2019-03-13T15:47:45.277Z,9.70
2019-03-13T15:50:13.142Z,9.70
2019-03-13T15:52:40.122Z,9.70
2019-03-13T15:55:08.270Z,9.70
2019-03-13T15:57:35.284Z,9.70
2019-03-13T16:00:03.382Z,9.60
2019-03-13T16:02:30.361Z,9.60
2019-03-13T16:04:57.301Z,9.60
2019-03-13T16:07:24.315Z,9.50
2019-03-13T16:09:51.312Z,9.50
2019-03-13T16:12:18.464Z,9.50
2019-03-13T16:14:45.503Z,9.50
2019-03-13T16:17:12.481Z,9.50
2019-03-13T16:19:39.549Z,9.60
2019-03-13T16:22:07.723Z,9.50
2019-03-13T16:24:34.860Z,9.50
2019-03-13T16:27:02.044Z,9.50
2019-03-13T16:29:30.870Z,9.50
2019-03-13T16:31:58.073Z,9.40
2019-03-13T16:34:25.012Z,9.40
2019-03-13T16:36:52.093Z,9.40
2019-03-13T16:39:19.311Z,9.40
2019-03-13T16:41:46.329Z,9.40
2019-03-13T16:44:13.330Z,9.40
2019-03-13T16:46:40.417Z,9.30
2019-03-13T16:49:07.513Z,9.30
2019-03-13T16:51:34.559Z,9.30
2019-03-13T16:54:01.560Z,9.30
2019-03-13T16:56:28.507Z,9.30
2019-03-13T16:58:55.656Z,9.30
2019-03-13T17:01:22.713Z,9.20
2019-03-13T17:03:49.811Z,9.20
2019-03-13T17:06:16.897Z,9.20
2019-03-13T17:08:43.918Z,9.20
2019-03-13T17:11:10.980Z,9.20
2019-03-13T17:13:37.921Z,9.10
2019-03-13T17:16:04.999Z,9.10
2019-03-13T17:18:32.072Z,9.10
2019-03-13T17:20:59.198Z,9.10
2019-03-13T17:23:26.165Z,9.10
2019-03-13T17:25:53.171Z,9.10
2019-03-13T17:28:21.240Z,9.10
2019-03-13T17:30:48.439Z,9.10
2019-03-13T17:33:15.579Z,9.10
2019-03-13T17:35:42.661Z,9.10
2019-03-13T17:38:09.797Z,9.10
2019-03-13T17:40:37.671Z,9.00
2019-03-13T17:43:04.736Z,9.10
2019-03-13T17:45:31.793Z,9.10
2019-03-13T17:47:59.021Z,9.10
2019-03-13T17:50:26.057Z,9.10
2019-03-13T17:52:53.053Z,9.10
2019-03-13T17:55:20.240Z,9.10
2019-03-13T17:57:47.195Z,9.10
2019-03-13T18:00:17.068Z,9.00
2019-03-13T18:02:44.020Z,9.10
2019-03-13T18:05:11.265Z,9.10
2019-03-13T18:07:38.526Z,9.00
2019-03-13T18:10:09.628Z,9.00
2019-03-13T18:12:36.812Z,9.00
2019-03-13T18:15:04.829Z,9.00
2019-03-13T18:17:31.804Z,9.00
2019-03-13T18:19:58.970Z,9.00
2019-03-13T18:22:26.176Z,9.00
2019-03-13T18:24:53.284Z,9.10
2019-03-13T18:27:20.388Z,9.00
2019-03-13T18:29:47.739Z,9.00
2019-03-13T18:32:15.780Z,9.00
2019-03-13T18:34:43.161Z,9.00
2019-03-13T18:37:10.260Z,8.90
2019-03-13T18:39:37.343Z,8.80
2019-03-13T18:42:04.485Z,8.70
2019-03-13T18:44:31.479Z,8.50
2019-03-13T18:46:58.445Z,8.60
2019-03-13T18:49:26.264Z,8.50
2019-03-13T18:51:53.309Z,8.50
2019-03-13T18:54:20.352Z,8.50
2019-03-13T18:56:47.419Z,8.40
2019-03-13T18:59:14.458Z,8.40
2019-03-13T19:01:41.586Z,8.40
2019-03-13T19:04:08.667Z,8.40
2019-03-13T19:06:35.640Z,8.40
2019-03-13T19:09:03.898Z,8.30
2019-03-13T19:11:31.061Z,8.30
2019-03-13T19:13:58.370Z,8.30
2019-03-13T19:16:25.505Z,8.20
2019-03-13T19:18:52.431Z,8.20
2019-03-13T19:21:19.441Z,8.20
2019-03-13T19:23:46.679Z,8.10
2019-03-13T19:26:13.748Z,8.10
2019-03-13T19:28:40.723Z,8.10
2019-03-13T19:31:07.777Z,8.10
2019-03-13T19:33:34.729Z,8.10
2019-03-13T19:36:02.008Z,8.10
2019-03-13T19:38:29.069Z,8.00
2019-03-13T19:40:56.117Z,8.00
2019-03-13T19:43:23.127Z,8.00
2019-03-13T19:45:50.125Z,8.00
2019-03-13T19:48:17.170Z,7.90
2019-03-13T19:50:44.566Z,7.90
2019-03-13T19:53:11.543Z,7.90
2019-03-13T19:55:38.698Z,7.90
2019-03-13T19:58:05.892Z,7.90
2019-03-13T20:00:33.035Z,7.80
2019-03-13T20:03:00.959Z,7.80
2019-03-13T20:05:28.266Z,7.80
2019-03-13T20:07:55.448Z,7.80
2019-03-13T20:10:23.388Z,7.80
2019-03-13T20:12:50.471Z,7.80
2019-03-13T20:15:18.807Z,7.80
2019-03-13T20:17:45.858Z,7.80
2019-03-13T20:20:14.179Z,7.70
2019-03-13T20:22:41.448Z,7.70
2019-03-13T20:25:09.597Z,7.70
2019-03-13T20:27:36.632Z,7.70
2019-03-13T20:30:04.047Z,7.70
2019-03-13T20:32:31.238Z,7.70
2019-03-13T20:34:58.434Z,7.70
2019-03-13T20:37:26.055Z,7.70
2019-03-13T20:39:53.209Z,7.70
2019-03-13T20:42:20.551Z,7.70
2019-03-13T20:44:47.690Z,7.70
2019-03-13T20:47:15.003Z,7.70
2019-03-13T20:49:42.115Z,7.80
2019-03-13T20:52:09.216Z,7.80
2019-03-13T20:54:36.481Z,7.80
2019-03-13T20:57:03.571Z,7.80
2019-03-13T20:59:32.596Z,7.80
2019-03-13T21:02:00.431Z,7.80
2019-03-13T21:04:27.808Z,7.80
2019-03-13T21:06:54.901Z,7.80
2019-03-13T21:09:21.902Z,7.80
2019-03-13T21:11:49.944Z,7.80
2019-03-13T21:14:17.275Z,7.80
2019-03-13T21:16:44.396Z,7.80
2019-03-13T21:19:11.527Z,7.70
2019-03-13T21:21:40.094Z,7.70
2019-03-13T21:24:07.173Z,7.70
2019-03-13T21:26:34.255Z,7.70
2019-03-13T21:29:01.303Z,7.60
2019-03-13T21:31:28.357Z,7.70
2019-03-13T21:33:55.414Z,7.70
2019-03-13T21:36:22.595Z,7.60
2019-03-13T21:38:50.725Z,7.60
2019-03-13T21:41:18.277Z,7.60
2019-03-13T21:43:46.396Z,7.60
2019-03-13T21:46:16.464Z,7.70
2019-03-13T21:48:49.578Z,7.70
2019-03-13T21:51:28.785Z,7.70
2019-03-13T21:54:08.033Z,7.70
2019-03-13T21:56:44.097Z,7.70
2019-03-13T21:59:26.865Z,7.70
2019-03-13T22:01:57.967Z,7.70
2019-03-13T22:04:33.827Z,7.60
2019-03-13T22:07:05.195Z,7.60
2019-03-13T22:09:32.821Z,7.50
2019-03-13T22:12:05.484Z,7.40
2019-03-13T22:14:47.189Z,7.40
2019-03-13T22:17:24.961Z,7.40
2019-03-13T22:19:51.940Z,7.30
2019-03-13T22:22:18.967Z,7.30
2019-03-13T22:24:46.139Z,7.40
2019-03-13T22:27:14.830Z,7.40
2019-03-13T22:29:42.054Z,7.50
2019-03-13T22:32:09.044Z,7.50
2019-03-13T22:34:36.288Z,7.50
2019-03-13T22:37:03.435Z,7.50
2019-03-13T22:39:30.599Z,7.50
2019-03-13T22:41:58.546Z,7.40
2019-03-13T22:44:26.033Z,7.40
2019-03-13T22:46:55.332Z,7.40
2019-03-13T22:49:22.336Z,7.30
2019-03-13T22:51:49.564Z,7.30
2019-03-13T22:54:16.737Z,7.20
2019-03-13T22:56:43.753Z,7.10
2019-03-13T22:59:10.761Z,7.10
2019-03-13T23:01:39.133Z,7.10
2019-03-13T23:04:06.800Z,7.00
2019-03-13T23:06:34.006Z,6.90
2019-03-13T23:09:01.054Z,6.90
2019-03-13T23:11:28.101Z,6.90
2019-03-13T23:13:55.016Z,6.80
2019-03-13T23:16:23.927Z,6.90
2019-03-13T23:18:50.757Z,6.90
2019-03-13T23:21:18.023Z,6.90
2019-03-13T23:23:45.018Z,6.90
2019-03-13T23:26:12.113Z,6.90
2019-03-13T23:28:39.149Z,6.90
2019-03-13T23:31:06.159Z,6.90
2019-03-13T23:33:33.166Z,6.90
2019-03-13T23:36:00.375Z,6.90
2019-03-13T23:38:27.470Z,6.90
2019-03-13T23:40:54.460Z,6.90
2019-03-13T23:43:21.485Z,7.00
2019-03-13T23:45:48.545Z,7.00
2019-03-13T23:48:15.533Z,6.90
2019-03-13T23:50:42.600Z,6.90
2019-03-13T23:53:09.643Z,6.90
2019-03-13T23:55:36.521Z,6.90
2019-03-13T23:58:04.259Z,6.90
